TAF KDHN
KDHN 090541Z 0906/1006 04003KT 6SM BR SCT250 FM091000 08004KT P6SM SCT015 BKN050 FM091300 07003KT P6SM SCT009 BKN025 FM092200 18005KT P6SM SCT025 FM100300 11004KT 5SM BR SCT010 OVC025=
METAR KDHN
WC KDHN
WS KDHN
WV KDHN